sensor_id;sensor_type;location;lat;lon;timestamp;P1;durP1;ratioP1;P2;durP2;ratioP2
75537;SDS011;64121;48.666;8.114;2023-02-04T00:00:28;2.72;;;1.40;;
75537;SDS011;64121;48.666;8.114;2023-02-04T00:02:54;3.00;;;1.40;;
75537;SDS011;64121;48.666;8.114;2023-02-04T00:05:19;3.00;;;1.70;;
75537;SDS011;64121;48.666;8.114;2023-02-04T00:07:44;2.83;;;1.45;;
75537;SDS011;64121;48.666;8.114;2023-02-04T00:10:11;2.33;;;1.38;;
75537;SDS011;64121;48.666;8.114;2023-02-04T00:12:37;2.10;;;1.30;;
75537;SDS011;64121;48.666;8.114;2023-02-04T00:15:02;1.80;;;1.15;;
75537;SDS011;64121;48.666;8.114;2023-02-04T00:17:28;2.15;;;1.10;;
75537;SDS011;64121;48.666;8.114;2023-02-04T00:19:53;2.92;;;1.45;;
75537;SDS011;64121;48.666;8.114;2023-02-04T00:22:18;3.08;;;1.40;;
75537;SDS011;64121;48.666;8.114;2023-02-04T00:24:44;2.03;;;1.48;;
75537;SDS011;64121;48.666;8.114;2023-02-04T00:27:10;3.28;;;1.67;;
75537;SDS011;64121;48.666;8.114;2023-02-04T00:29:36;2.05;;;1.20;;
75537;SDS011;64121;48.666;8.114;2023-02-04T00:32:01;2.20;;;1.55;;
75537;SDS011;64121;48.666;8.114;2023-02-04T00:34:26;3.65;;;1.52;;
75537;SDS011;64121;48.666;8.114;2023-02-04T00:36:52;1.92;;;1.08;;
75537;SDS011;64121;48.666;8.114;2023-02-04T00:39:17;2.50;;;1.30;;
75537;SDS011;64121;48.666;8.114;2023-02-04T00:41:42;2.33;;;1.30;;
75537;SDS011;64121;48.666;8.114;2023-02-04T00:44:09;2.63;;;1.65;;
75537;SDS011;64121;48.666;8.114;2023-02-04T00:46:35;3.50;;;1.23;;
75537;SDS011;64121;48.666;8.114;2023-02-04T00:49:00;2.10;;;1.17;;
75537;SDS011;64121;48.666;8.114;2023-02-04T00:51:25;2.47;;;1.55;;
75537;SDS011;64121;48.666;8.114;2023-02-04T00:53:51;2.60;;;1.08;;
75537;SDS011;64121;48.666;8.114;2023-02-04T00:56:16;2.25;;;1.25;;
75537;SDS011;64121;48.666;8.114;2023-02-04T00:58:41;2.25;;;1.20;;
75537;SDS011;64121;48.666;8.114;2023-02-04T01:01:08;1.92;;;1.13;;
75537;SDS011;64121;48.666;8.114;2023-02-04T01:03:33;1.73;;;1.10;;
75537;SDS011;64121;48.666;8.114;2023-02-04T01:05:58;2.28;;;1.23;;
75537;SDS011;64121;48.666;8.114;2023-02-04T01:08:24;2.58;;;1.33;;
75537;SDS011;64121;48.666;8.114;2023-02-04T01:10:49;2.25;;;1.15;;
75537;SDS011;64121;48.666;8.114;2023-02-04T01:13:14;1.95;;;0.98;;
75537;SDS011;64121;48.666;8.114;2023-02-04T01:15:40;2.25;;;1.20;;
75537;SDS011;64121;48.666;8.114;2023-02-04T01:18:06;2.40;;;1.25;;
75537;SDS011;64121;48.666;8.114;2023-02-04T01:20:32;2.03;;;1.25;;
75537;SDS011;64121;48.666;8.114;2023-02-04T01:22:57;2.70;;;1.10;;
75537;SDS011;64121;48.666;8.114;2023-02-04T01:25:22;2.45;;;1.00;;
75537;SDS011;64121;48.666;8.114;2023-02-04T01:27:48;2.92;;;1.10;;
75537;SDS011;64121;48.666;8.114;2023-02-04T01:30:13;2.22;;;1.10;;
75537;SDS011;64121;48.666;8.114;2023-02-04T01:32:40;2.05;;;1.20;;
75537;SDS011;64121;48.666;8.114;2023-02-04T01:35:07;2.35;;;1.10;;
75537;SDS011;64121;48.666;8.114;2023-02-04T01:37:32;3.10;;;1.08;;
75537;SDS011;64121;48.666;8.114;2023-02-04T01:39:58;2.10;;;1.02;;
75537;SDS011;64121;48.666;8.114;2023-02-04T01:42:23;2.00;;;1.00;;
75537;SDS011;64121;48.666;8.114;2023-02-04T01:44:49;3.28;;;1.65;;
75537;SDS011;64121;48.666;8.114;2023-02-04T01:47:16;3.15;;;1.38;;
75537;SDS011;64121;48.666;8.114;2023-02-04T01:49:41;1.77;;;1.02;;
75537;SDS011;64121;48.666;8.114;2023-02-04T01:52:09;1.80;;;1.20;;
75537;SDS011;64121;48.666;8.114;2023-02-04T01:54:35;4.05;;;1.52;;
75537;SDS011;64121;48.666;8.114;2023-02-04T01:57:01;2.00;;;1.10;;
75537;SDS011;64121;48.666;8.114;2023-02-04T01:59:28;2.60;;;1.48;;
75537;SDS011;64121;48.666;8.114;2023-02-04T02:01:53;2.70;;;1.38;;
75537;SDS011;64121;48.666;8.114;2023-02-04T02:04:19;2.58;;;1.33;;
75537;SDS011;64121;48.666;8.114;2023-02-04T02:06:50;2.85;;;1.33;;
75537;SDS011;64121;48.666;8.114;2023-02-04T02:09:18;2.05;;;1.23;;
75537;SDS011;64121;48.666;8.114;2023-02-04T02:11:44;2.80;;;1.40;;
75537;SDS011;64121;48.666;8.114;2023-02-04T02:14:09;2.97;;;1.23;;
75537;SDS011;64121;48.666;8.114;2023-02-04T02:16:35;2.38;;;1.20;;
75537;SDS011;64121;48.666;8.114;2023-02-04T02:19:01;2.20;;;1.27;;
75537;SDS011;64121;48.666;8.114;2023-02-04T02:21:29;2.45;;;1.25;;
75537;SDS011;64121;48.666;8.114;2023-02-04T02:24:03;2.13;;;1.00;;
75537;SDS011;64121;48.666;8.114;2023-02-04T02:26:50;2.00;;;1.20;;
75537;SDS011;64121;48.666;8.114;2023-02-04T02:29:16;2.35;;;1.10;;
75537;SDS011;64121;48.666;8.114;2023-02-04T02:31:41;2.28;;;1.23;;
75537;SDS011;64121;48.666;8.114;2023-02-04T02:34:07;1.75;;;1.25;;
75537;SDS011;64121;48.666;8.114;2023-02-04T02:36:32;2.35;;;1.20;;
75537;SDS011;64121;48.666;8.114;2023-02-04T02:38:59;2.72;;;1.30;;
75537;SDS011;64121;48.666;8.114;2023-02-04T02:41:25;2.70;;;1.27;;
75537;SDS011;64121;48.666;8.114;2023-02-04T02:43:50;2.95;;;1.23;;
75537;SDS011;64121;48.666;8.114;2023-02-04T02:46:16;2.67;;;1.38;;
75537;SDS011;64121;48.666;8.114;2023-02-04T02:48:41;2.30;;;1.38;;
75537;SDS011;64121;48.666;8.114;2023-02-04T02:51:06;3.20;;;1.50;;
75537;SDS011;64121;48.666;8.114;2023-02-04T02:53:32;2.20;;;1.35;;
75537;SDS011;64121;48.666;8.114;2023-02-04T02:55:59;2.78;;;1.73;;
75537;SDS011;64121;48.666;8.114;2023-02-04T02:58:25;3.03;;;1.42;;
75537;SDS011;64121;48.666;8.114;2023-02-04T03:00:53;3.15;;;1.42;;
75537;SDS011;64121;48.666;8.114;2023-02-04T03:03:20;3.58;;;1.52;;
75537;SDS011;64121;48.666;8.114;2023-02-04T03:05:49;2.10;;;1.30;;
75537;SDS011;64121;48.666;8.114;2023-02-04T03:08:19;2.35;;;1.45;;
75537;SDS011;64121;48.666;8.114;2023-02-04T03:10:44;1.73;;;1.25;;
75537;SDS011;64121;48.666;8.114;2023-02-04T03:13:12;2.58;;;1.60;;
75537;SDS011;64121;48.666;8.114;2023-02-04T03:15:39;2.22;;;1.67;;
75537;SDS011;64121;48.666;8.114;2023-02-04T03:18:06;3.35;;;1.73;;
75537;SDS011;64121;48.666;8.114;2023-02-04T03:20:32;3.13;;;2.00;;
75537;SDS011;64121;48.666;8.114;2023-02-04T03:22:58;3.20;;;1.88;;
75537;SDS011;64121;48.666;8.114;2023-02-04T03:25:24;3.15;;;1.90;;
75537;SDS011;64121;48.666;8.114;2023-02-04T03:27:50;2.90;;;1.90;;
75537;SDS011;64121;48.666;8.114;2023-02-04T03:30:16;3.15;;;1.90;;
75537;SDS011;64121;48.666;8.114;2023-02-04T03:32:42;3.88;;;2.10;;
75537;SDS011;64121;48.666;8.114;2023-02-04T03:35:07;2.67;;;1.90;;
75537;SDS011;64121;48.666;8.114;2023-02-04T03:37:32;3.78;;;2.28;;
75537;SDS011;64121;48.666;8.114;2023-02-04T03:39:58;3.25;;;2.00;;
75537;SDS011;64121;48.666;8.114;2023-02-04T03:42:23;3.90;;;2.00;;
75537;SDS011;64121;48.666;8.114;2023-02-04T03:44:48;4.10;;;2.08;;
75537;SDS011;64121;48.666;8.114;2023-02-04T03:47:15;2.83;;;1.83;;
75537;SDS011;64121;48.666;8.114;2023-02-04T03:49:40;4.03;;;2.17;;
75537;SDS011;64121;48.666;8.114;2023-02-04T03:52:06;3.53;;;2.13;;
75537;SDS011;64121;48.666;8.114;2023-02-04T03:54:31;3.20;;;1.83;;
75537;SDS011;64121;48.666;8.114;2023-02-04T03:56:56;3.20;;;2.05;;
75537;SDS011;64121;48.666;8.114;2023-02-04T03:59:22;4.03;;;2.20;;
75537;SDS011;64121;48.666;8.114;2023-02-04T04:01:47;3.92;;;2.30;;
75537;SDS011;64121;48.666;8.114;2023-02-04T04:04:14;4.30;;;2.33;;
75537;SDS011;64121;48.666;8.114;2023-02-04T04:06:39;3.95;;;2.50;;
75537;SDS011;64121;48.666;8.114;2023-02-04T04:09:04;3.72;;;2.38;;
75537;SDS011;64121;48.666;8.114;2023-02-04T04:11:30;3.47;;;2.22;;
75537;SDS011;64121;48.666;8.114;2023-02-04T04:13:56;3.28;;;2.30;;
75537;SDS011;64121;48.666;8.114;2023-02-04T04:16:21;2.90;;;2.20;;
75537;SDS011;64121;48.666;8.114;2023-02-04T04:18:46;4.40;;;2.80;;
75537;SDS011;64121;48.666;8.114;2023-02-04T04:21:13;4.80;;;2.28;;
75537;SDS011;64121;48.666;8.114;2023-02-04T04:23:38;4.40;;;2.53;;
75537;SDS011;64121;48.666;8.114;2023-02-04T04:26:04;3.67;;;2.70;;
75537;SDS011;64121;48.666;8.114;2023-02-04T04:28:29;4.40;;;2.90;;
75537;SDS011;64121;48.666;8.114;2023-02-04T04:30:54;4.43;;;2.35;;
75537;SDS011;64121;48.666;8.114;2023-02-04T04:33:20;3.50;;;2.72;;
75537;SDS011;64121;48.666;8.114;2023-02-04T04:35:45;4.18;;;3.00;;
75537;SDS011;64121;48.666;8.114;2023-02-04T04:38:12;3.92;;;2.70;;
75537;SDS011;64121;48.666;8.114;2023-02-04T04:40:37;4.97;;;2.85;;
75537;SDS011;64121;48.666;8.114;2023-02-04T04:43:02;3.70;;;2.65;;
75537;SDS011;64121;48.666;8.114;2023-02-04T04:45:28;3.90;;;2.45;;
75537;SDS011;64121;48.666;8.114;2023-02-04T04:47:53;4.22;;;2.65;;
75537;SDS011;64121;48.666;8.114;2023-02-04T04:50:18;4.90;;;2.78;;
75537;SDS011;64121;48.666;8.114;2023-02-04T04:52:44;3.85;;;3.03;;
75537;SDS011;64121;48.666;8.114;2023-02-04T04:55:11;5.43;;;3.17;;
75537;SDS011;64121;48.666;8.114;2023-02-04T04:57:36;4.93;;;3.05;;
75537;SDS011;64121;48.666;8.114;2023-02-04T05:00:01;3.40;;;2.47;;
75537;SDS011;64121;48.666;8.114;2023-02-04T05:02:27;3.30;;;2.05;;
75537;SDS011;64121;48.666;8.114;2023-02-04T05:04:52;4.65;;;2.40;;
75537;SDS011;64121;48.666;8.114;2023-02-04T05:07:18;4.13;;;2.47;;
75537;SDS011;64121;48.666;8.114;2023-02-04T05:09:43;3.70;;;2.47;;
75537;SDS011;64121;48.666;8.114;2023-02-04T05:12:10;3.65;;;2.10;;
75537;SDS011;64121;48.666;8.114;2023-02-04T05:14:35;3.90;;;2.50;;
75537;SDS011;64121;48.666;8.114;2023-02-04T05:17:00;3.13;;;2.38;;
75537;SDS011;64121;48.666;8.114;2023-02-04T05:19:26;3.50;;;2.40;;
75537;SDS011;64121;48.666;8.114;2023-02-04T05:21:51;3.75;;;2.50;;
75537;SDS011;64121;48.666;8.114;2023-02-04T05:24:16;3.47;;;2.30;;
75537;SDS011;64121;48.666;8.114;2023-02-04T05:26:41;3.45;;;2.50;;
75537;SDS011;64121;48.666;8.114;2023-02-04T05:29:08;3.70;;;2.30;;
75537;SDS011;64121;48.666;8.114;2023-02-04T05:31:33;3.70;;;2.35;;
75537;SDS011;64121;48.666;8.114;2023-02-04T05:33:59;3.30;;;2.30;;
75537;SDS011;64121;48.666;8.114;2023-02-04T05:36:24;4.00;;;2.50;;
75537;SDS011;64121;48.666;8.114;2023-02-04T05:38:49;3.83;;;2.47;;
75537;SDS011;64121;48.666;8.114;2023-02-04T05:41:15;2.95;;;2.25;;
75537;SDS011;64121;48.666;8.114;2023-02-04T05:43:40;3.15;;;2.20;;
75537;SDS011;64121;48.666;8.114;2023-02-04T05:46:07;3.28;;;2.38;;
75537;SDS011;64121;48.666;8.114;2023-02-04T05:48:33;3.35;;;2.50;;
75537;SDS011;64121;48.666;8.114;2023-02-04T05:50:58;3.38;;;2.33;;
75537;SDS011;64121;48.666;8.114;2023-02-04T05:53:24;3.63;;;2.33;;
75537;SDS011;64121;48.666;8.114;2023-02-04T05:55:49;3.83;;;2.72;;
75537;SDS011;64121;48.666;8.114;2023-02-04T05:58:14;3.33;;;2.13;;
75537;SDS011;64121;48.666;8.114;2023-02-04T06:00:39;3.70;;;2.72;;
75537;SDS011;64121;48.666;8.114;2023-02-04T06:03:06;3.70;;;2.53;;
75537;SDS011;64121;48.666;8.114;2023-02-04T06:05:31;7.00;;;3.35;;
75537;SDS011;64121;48.666;8.114;2023-02-04T06:07:57;4.93;;;3.78;;
75537;SDS011;64121;48.666;8.114;2023-02-04T06:10:22;6.47;;;3.90;;
75537;SDS011;64121;48.666;8.114;2023-02-04T06:12:47;4.55;;;3.10;;
75537;SDS011;64121;48.666;8.114;2023-02-04T06:15:13;4.43;;;3.20;;
75537;SDS011;64121;48.666;8.114;2023-02-04T06:17:38;4.93;;;3.47;;
75537;SDS011;64121;48.666;8.114;2023-02-04T06:20:06;7.78;;;4.55;;
75537;SDS011;64121;48.666;8.114;2023-02-04T06:22:32;5.97;;;3.67;;
75537;SDS011;64121;48.666;8.114;2023-02-04T06:24:57;6.85;;;3.92;;
75537;SDS011;64121;48.666;8.114;2023-02-04T06:27:23;6.93;;;4.28;;
75537;SDS011;64121;48.666;8.114;2023-02-04T06:29:48;5.65;;;3.88;;
75537;SDS011;64121;48.666;8.114;2023-02-04T06:32:14;6.20;;;4.40;;
75537;SDS011;64121;48.666;8.114;2023-02-04T06:34:39;6.18;;;4.68;;
75537;SDS011;64121;48.666;8.114;2023-02-04T06:37:06;6.60;;;4.43;;
75537;SDS011;64121;48.666;8.114;2023-02-04T06:39:31;6.93;;;4.70;;
75537;SDS011;64121;48.666;8.114;2023-02-04T06:41:56;6.35;;;4.20;;
75537;SDS011;64121;48.666;8.114;2023-02-04T06:44:22;6.13;;;3.70;;
75537;SDS011;64121;48.666;8.114;2023-02-04T06:46:47;4.70;;;3.47;;
75537;SDS011;64121;48.666;8.114;2023-02-04T06:49:12;5.03;;;3.40;;
75537;SDS011;64121;48.666;8.114;2023-02-04T06:51:38;5.30;;;2.92;;
75537;SDS011;64121;48.666;8.114;2023-02-04T06:54:05;5.18;;;3.92;;
75537;SDS011;64121;48.666;8.114;2023-02-04T06:56:31;5.28;;;3.20;;
75537;SDS011;64121;48.666;8.114;2023-02-04T06:58:56;4.35;;;2.80;;
75537;SDS011;64121;48.666;8.114;2023-02-04T07:01:21;3.92;;;2.72;;
75537;SDS011;64121;48.666;8.114;2023-02-04T07:03:47;4.75;;;3.13;;
75537;SDS011;64121;48.666;8.114;2023-02-04T07:06:12;4.80;;;3.75;;
75537;SDS011;64121;48.666;8.114;2023-02-04T07:08:37;6.25;;;4.68;;
75537;SDS011;64121;48.666;8.114;2023-02-04T07:11:04;7.15;;;3.60;;
75537;SDS011;64121;48.666;8.114;2023-02-04T07:13:29;6.50;;;2.78;;
75537;SDS011;64121;48.666;8.114;2023-02-04T07:15:55;5.07;;;2.80;;
75537;SDS011;64121;48.666;8.114;2023-02-04T07:18:20;4.00;;;2.00;;
75537;SDS011;64121;48.666;8.114;2023-02-04T07:20:45;4.40;;;2.28;;
75537;SDS011;64121;48.666;8.114;2023-02-04T07:23:11;4.03;;;1.90;;
75537;SDS011;64121;48.666;8.114;2023-02-04T07:25:36;4.57;;;2.50;;
75537;SDS011;64121;48.666;8.114;2023-02-04T07:28:03;4.72;;;3.05;;
75537;SDS011;64121;48.666;8.114;2023-02-04T07:30:29;6.20;;;2.38;;
75537;SDS011;64121;48.666;8.114;2023-02-04T07:32:54;6.97;;;1.95;;
75537;SDS011;64121;48.666;8.114;2023-02-04T07:35:19;4.53;;;2.13;;
75537;SDS011;64121;48.666;8.114;2023-02-04T07:37:45;6.35;;;2.40;;
75537;SDS011;64121;48.666;8.114;2023-02-04T07:40:10;5.70;;;2.40;;
75537;SDS011;64121;48.666;8.114;2023-02-04T07:42:36;4.75;;;2.53;;
75537;SDS011;64121;48.666;8.114;2023-02-04T07:45:03;4.00;;;2.20;;
75537;SDS011;64121;48.666;8.114;2023-02-04T07:47:29;3.88;;;2.03;;
75537;SDS011;64121;48.666;8.114;2023-02-04T07:49:54;3.72;;;2.10;;
75537;SDS011;64121;48.666;8.114;2023-02-04T07:52:20;5.40;;;2.67;;
75537;SDS011;64121;48.666;8.114;2023-02-04T07:54:45;3.97;;;2.13;;
75537;SDS011;64121;48.666;8.114;2023-02-04T07:57:10;5.38;;;2.45;;
75537;SDS011;64121;48.666;8.114;2023-02-04T07:59:36;5.30;;;2.80;;
75537;SDS011;64121;48.666;8.114;2023-02-04T08:02:02;5.18;;;2.75;;
75537;SDS011;64121;48.666;8.114;2023-02-04T08:04:28;5.53;;;3.00;;
75537;SDS011;64121;48.666;8.114;2023-02-04T08:06:53;6.93;;;3.50;;
75537;SDS011;64121;48.666;8.114;2023-02-04T08:09:18;8.10;;;3.47;;
75537;SDS011;64121;48.666;8.114;2023-02-04T08:11:44;6.53;;;3.95;;
75537;SDS011;64121;48.666;8.114;2023-02-04T08:14:09;7.07;;;3.97;;
75537;SDS011;64121;48.666;8.114;2023-02-04T08:16:34;9.38;;;5.43;;
75537;SDS011;64121;48.666;8.114;2023-02-04T08:19:01;9.50;;;6.55;;
75537;SDS011;64121;48.666;8.114;2023-02-04T08:21:26;9.52;;;5.95;;
75537;SDS011;64121;48.666;8.114;2023-02-04T08:23:52;10.90;;;6.72;;
75537;SDS011;64121;48.666;8.114;2023-02-04T08:26:17;11.27;;;6.65;;
75537;SDS011;64121;48.666;8.114;2023-02-04T08:28:42;12.02;;;7.30;;
75537;SDS011;64121;48.666;8.114;2023-02-04T08:31:08;10.45;;;7.22;;
75537;SDS011;64121;48.666;8.114;2023-02-04T08:33:33;10.93;;;6.63;;
75537;SDS011;64121;48.666;8.114;2023-02-04T08:36:00;9.63;;;6.60;;
75537;SDS011;64121;48.666;8.114;2023-02-04T08:38:25;9.85;;;6.22;;
75537;SDS011;64121;48.666;8.114;2023-02-04T08:40:50;11.98;;;7.25;;
75537;SDS011;64121;48.666;8.114;2023-02-04T08:43:16;16.00;;;7.53;;
75537;SDS011;64121;48.666;8.114;2023-02-04T08:45:41;18.33;;;8.50;;
75537;SDS011;64121;48.666;8.114;2023-02-04T08:48:06;24.58;;;11.98;;
75537;SDS011;64121;48.666;8.114;2023-02-04T08:50:32;24.13;;;11.43;;
75537;SDS011;64121;48.666;8.114;2023-02-04T08:52:58;8.95;;;3.92;;
75537;SDS011;64121;48.666;8.114;2023-02-04T08:55:24;14.07;;;5.97;;
75537;SDS011;64121;48.666;8.114;2023-02-04T08:57:49;51.10;;;17.52;;
75537;SDS011;64121;48.666;8.114;2023-02-04T09:00:14;73.45;;;36.60;;
75537;SDS011;64121;48.666;8.114;2023-02-04T09:02:40;30.38;;;18.48;;
75537;SDS011;64121;48.666;8.114;2023-02-04T09:05:06;25.75;;;11.18;;
75537;SDS011;64121;48.666;8.114;2023-02-04T09:07:31;15.30;;;8.57;;
75537;SDS011;64121;48.666;8.114;2023-02-04T09:09:58;11.73;;;5.95;;
75537;SDS011;64121;48.666;8.114;2023-02-04T09:12:23;6.53;;;4.47;;
75537;SDS011;64121;48.666;8.114;2023-02-04T09:14:49;9.02;;;6.38;;
75537;SDS011;64121;48.666;8.114;2023-02-04T09:17:14;44.38;;;23.58;;
75537;SDS011;64121;48.666;8.114;2023-02-04T09:19:39;47.40;;;24.05;;
75537;SDS011;64121;48.666;8.114;2023-02-04T09:22:05;43.35;;;19.15;;
75537;SDS011;64121;48.666;8.114;2023-02-04T09:24:30;67.35;;;26.20;;
75537;SDS011;64121;48.666;8.114;2023-02-04T09:26:57;41.38;;;18.75;;
75537;SDS011;64121;48.666;8.114;2023-02-04T09:29:22;45.38;;;18.58;;
75537;SDS011;64121;48.666;8.114;2023-02-04T09:31:48;55.72;;;26.10;;
75537;SDS011;64121;48.666;8.114;2023-02-04T09:34:13;15.27;;;8.07;;
75537;SDS011;64121;48.666;8.114;2023-02-04T09:36:38;10.85;;;5.55;;
75537;SDS011;64121;48.666;8.114;2023-02-04T09:39:04;6.90;;;4.88;;
75537;SDS011;64121;48.666;8.114;2023-02-04T09:41:29;9.20;;;4.85;;
75537;SDS011;64121;48.666;8.114;2023-02-04T09:43:56;8.57;;;5.22;;
75537;SDS011;64121;48.666;8.114;2023-02-04T09:46:23;13.43;;;6.45;;
75537;SDS011;64121;48.666;8.114;2023-02-04T09:48:50;11.68;;;5.55;;
75537;SDS011;64121;48.666;8.114;2023-02-04T09:51:17;9.40;;;5.15;;
75537;SDS011;64121;48.666;8.114;2023-02-04T09:53:45;5.47;;;3.42;;
75537;SDS011;64121;48.666;8.114;2023-02-04T09:56:11;5.30;;;3.45;;
75537;SDS011;64121;48.666;8.114;2023-02-04T09:58:37;6.15;;;3.78;;
75537;SDS011;64121;48.666;8.114;2023-02-04T10:01:08;6.63;;;3.85;;
75537;SDS011;64121;48.666;8.114;2023-02-04T10:03:38;6.35;;;3.58;;
75537;SDS011;64121;48.666;8.114;2023-02-04T10:06:06;5.15;;;3.08;;
75537;SDS011;64121;48.666;8.114;2023-02-04T10:08:32;8.68;;;3.15;;
75537;SDS011;64121;48.666;8.114;2023-02-04T10:10:58;8.07;;;3.70;;
75537;SDS011;64121;48.666;8.114;2023-02-04T10:13:26;9.40;;;3.42;;
75537;SDS011;64121;48.666;8.114;2023-02-04T10:15:56;6.95;;;3.30;;
75537;SDS011;64121;48.666;8.114;2023-02-04T10:18:24;6.28;;;2.85;;
75537;SDS011;64121;48.666;8.114;2023-02-04T10:20:53;4.43;;;2.90;;
75537;SDS011;64121;48.666;8.114;2023-02-04T10:23:21;5.40;;;2.60;;
75537;SDS011;64121;48.666;8.114;2023-02-04T10:25:47;7.40;;;2.55;;
75537;SDS011;64121;48.666;8.114;2023-02-04T10:28:12;6.28;;;2.10;;
75537;SDS011;64121;48.666;8.114;2023-02-04T10:30:38;5.72;;;2.42;;
75537;SDS011;64121;48.666;8.114;2023-02-04T10:33:10;6.93;;;2.45;;
75537;SDS011;64121;48.666;8.114;2023-02-04T10:35:43;6.22;;;2.55;;
75537;SDS011;64121;48.666;8.114;2023-02-04T10:38:09;4.65;;;2.00;;
75537;SDS011;64121;48.666;8.114;2023-02-04T10:40:35;7.60;;;2.83;;
75537;SDS011;64121;48.666;8.114;2023-02-04T10:43:06;5.28;;;2.13;;
75537;SDS011;64121;48.666;8.114;2023-02-04T10:45:32;7.28;;;2.60;;
75537;SDS011;64121;48.666;8.114;2023-02-04T10:47:57;6.72;;;2.20;;
75537;SDS011;64121;48.666;8.114;2023-02-04T10:50:23;5.82;;;2.40;;
75537;SDS011;64121;48.666;8.114;2023-02-04T10:52:51;6.53;;;2.80;;
75537;SDS011;64121;48.666;8.114;2023-02-04T10:55:18;6.63;;;2.83;;
75537;SDS011;64121;48.666;8.114;2023-02-04T10:57:46;6.55;;;2.42;;
75537;SDS011;64121;48.666;8.114;2023-02-04T11:00:14;7.88;;;2.45;;
75537;SDS011;64121;48.666;8.114;2023-02-04T11:02:42;4.15;;;2.13;;
75537;SDS011;64121;48.666;8.114;2023-02-04T11:05:10;7.18;;;2.13;;
75537;SDS011;64121;48.666;8.114;2023-02-04T11:07:37;8.43;;;2.75;;
75537;SDS011;64121;48.666;8.114;2023-02-04T11:10:04;5.57;;;3.20;;
75537;SDS011;64121;48.666;8.114;2023-02-04T11:12:37;9.50;;;3.75;;
75537;SDS011;64121;48.666;8.114;2023-02-04T11:15:05;10.07;;;3.33;;
75537;SDS011;64121;48.666;8.114;2023-02-04T11:17:57;9.13;;;3.42;;
75537;SDS011;64121;48.666;8.114;2023-02-04T11:20:29;8.57;;;3.25;;
75537;SDS011;64121;48.666;8.114;2023-02-04T11:22:55;9.63;;;2.78;;
75537;SDS011;64121;48.666;8.114;2023-02-04T11:25:31;8.52;;;2.97;;
75537;SDS011;64121;48.666;8.114;2023-02-04T11:27:56;8.98;;;2.92;;
75537;SDS011;64121;48.666;8.114;2023-02-04T11:30:22;7.45;;;2.75;;
75537;SDS011;64121;48.666;8.114;2023-02-04T11:32:54;7.95;;;2.95;;
75537;SDS011;64121;48.666;8.114;2023-02-04T11:35:25;6.45;;;3.53;;
75537;SDS011;64121;48.666;8.114;2023-02-04T11:37:51;7.25;;;3.40;;
75537;SDS011;64121;48.666;8.114;2023-02-04T11:40:22;9.57;;;3.22;;
75537;SDS011;64121;48.666;8.114;2023-02-04T11:42:50;10.23;;;3.13;;
75537;SDS011;64121;48.666;8.114;2023-02-04T11:45:22;6.80;;;2.70;;
75537;SDS011;64121;48.666;8.114;2023-02-04T11:47:50;6.70;;;3.08;;
75537;SDS011;64121;48.666;8.114;2023-02-04T11:50:16;9.57;;;3.70;;
75537;SDS011;64121;48.666;8.114;2023-02-04T11:52:45;7.25;;;3.60;;
75537;SDS011;64121;48.666;8.114;2023-02-04T11:55:10;6.05;;;2.90;;
75537;SDS011;64121;48.666;8.114;2023-02-04T11:57:37;6.32;;;3.05;;
75537;SDS011;64121;48.666;8.114;2023-02-04T12:00:05;6.25;;;2.42;;
75537;SDS011;64121;48.666;8.114;2023-02-04T12:02:40;8.98;;;3.17;;
75537;SDS011;64121;48.666;8.114;2023-02-04T12:05:08;8.95;;;3.88;;
75537;SDS011;64121;48.666;8.114;2023-02-04T12:07:35;7.82;;;3.20;;
75537;SDS011;64121;48.666;8.114;2023-02-04T12:10:09;10.32;;;3.05;;
75537;SDS011;64121;48.666;8.114;2023-02-04T12:12:40;7.93;;;3.25;;
75537;SDS011;64121;48.666;8.114;2023-02-04T12:15:12;10.02;;;3.28;;
75537;SDS011;64121;48.666;8.114;2023-02-04T12:17:39;10.25;;;4.30;;
75537;SDS011;64121;48.666;8.114;2023-02-04T12:20:08;9.80;;;3.20;;
75537;SDS011;64121;48.666;8.114;2023-02-04T12:22:35;9.90;;;3.78;;
75537;SDS011;64121;48.666;8.114;2023-02-04T12:25:00;8.43;;;3.47;;
75537;SDS011;64121;48.666;8.114;2023-02-04T12:27:26;8.00;;;3.25;;
75537;SDS011;64121;48.666;8.114;2023-02-04T12:29:51;10.80;;;3.30;;
75537;SDS011;64121;48.666;8.114;2023-02-04T12:32:18;6.05;;;3.15;;
75537;SDS011;64121;48.666;8.114;2023-02-04T12:34:43;12.95;;;2.90;;
75537;SDS011;64121;48.666;8.114;2023-02-04T12:37:08;9.10;;;2.92;;
75537;SDS011;64121;48.666;8.114;2023-02-04T12:39:34;14.68;;;3.17;;
75537;SDS011;64121;48.666;8.114;2023-02-04T12:41:59;13.52;;;3.53;;
75537;SDS011;64121;48.666;8.114;2023-02-04T12:44:24;10.95;;;3.33;;
75537;SDS011;64121;48.666;8.114;2023-02-04T12:46:50;7.43;;;2.75;;
75537;SDS011;64121;48.666;8.114;2023-02-04T12:49:16;13.30;;;4.28;;
75537;SDS011;64121;48.666;8.114;2023-02-04T12:51:42;9.40;;;3.80;;
75537;SDS011;64121;48.666;8.114;2023-02-04T12:54:07;8.25;;;2.97;;
75537;SDS011;64121;48.666;8.114;2023-02-04T12:56:32;17.00;;;8.82;;
75537;SDS011;64121;48.666;8.114;2023-02-04T12:58:58;21.35;;;10.75;;
75537;SDS011;64121;48.666;8.114;2023-02-04T13:01:23;13.15;;;7.30;;
75537;SDS011;64121;48.666;8.114;2023-02-04T13:03:48;10.82;;;3.38;;
75537;SDS011;64121;48.666;8.114;2023-02-04T13:06:15;6.40;;;2.25;;
75537;SDS011;64121;48.666;8.114;2023-02-04T13:08:40;8.48;;;3.40;;
75537;SDS011;64121;48.666;8.114;2023-02-04T13:11:06;9.95;;;3.60;;
75537;SDS011;64121;48.666;8.114;2023-02-04T13:13:31;8.10;;;2.90;;
75537;SDS011;64121;48.666;8.114;2023-02-04T13:15:56;7.70;;;2.50;;
75537;SDS011;64121;48.666;8.114;2023-02-04T13:18:22;9.70;;;2.92;;
75537;SDS011;64121;48.666;8.114;2023-02-04T13:20:47;8.73;;;3.10;;
75537;SDS011;64121;48.666;8.114;2023-02-04T13:23:14;6.95;;;2.42;;
75537;SDS011;64121;48.666;8.114;2023-02-04T13:25:39;7.85;;;2.95;;
75537;SDS011;64121;48.666;8.114;2023-02-04T13:28:05;8.02;;;2.55;;
75537;SDS011;64121;48.666;8.114;2023-02-04T13:30:30;10.15;;;3.42;;
75537;SDS011;64121;48.666;8.114;2023-02-04T13:32:55;11.13;;;2.75;;
75537;SDS011;64121;48.666;8.114;2023-02-04T13:35:21;6.00;;;2.50;;
75537;SDS011;64121;48.666;8.114;2023-02-04T13:37:46;7.55;;;2.50;;
75537;SDS011;64121;48.666;8.114;2023-02-04T13:40:13;11.45;;;3.20;;
75537;SDS011;64121;48.666;8.114;2023-02-04T13:42:38;11.60;;;3.47;;
75537;SDS011;64121;48.666;8.114;2023-02-04T13:45:04;7.68;;;2.95;;
75537;SDS011;64121;48.666;8.114;2023-02-04T13:47:30;8.35;;;2.85;;
75537;SDS011;64121;48.666;8.114;2023-02-04T13:49:55;8.77;;;2.67;;
75537;SDS011;64121;48.666;8.114;2023-02-04T13:52:21;8.13;;;2.58;;
75537;SDS011;64121;48.666;8.114;2023-02-04T13:54:46;8.50;;;2.80;;
75537;SDS011;64121;48.666;8.114;2023-02-04T13:57:13;6.88;;;2.20;;
75537;SDS011;64121;48.666;8.114;2023-02-04T13:59:38;8.57;;;2.25;;
75537;SDS011;64121;48.666;8.114;2023-02-04T14:02:03;7.50;;;2.20;;
75537;SDS011;64121;48.666;8.114;2023-02-04T14:04:29;5.90;;;2.28;;
75537;SDS011;64121;48.666;8.114;2023-02-04T14:06:54;7.55;;;2.25;;
75537;SDS011;64121;48.666;8.114;2023-02-04T14:09:20;8.65;;;2.38;;
75537;SDS011;64121;48.666;8.114;2023-02-04T14:11:45;9.85;;;2.67;;
75537;SDS011;64121;48.666;8.114;2023-02-04T14:14:12;8.05;;;2.65;;
75537;SDS011;64121;48.666;8.114;2023-02-04T14:16:37;6.03;;;2.35;;
75537;SDS011;64121;48.666;8.114;2023-02-04T14:19:03;5.70;;;2.60;;
75537;SDS011;64121;48.666;8.114;2023-02-04T14:21:28;7.40;;;2.00;;
75537;SDS011;64121;48.666;8.114;2023-02-04T14:23:53;8.18;;;2.03;;
75537;SDS011;64121;48.666;8.114;2023-02-04T14:26:19;8.25;;;2.35;;
75537;SDS011;64121;48.666;8.114;2023-02-04T14:28:44;7.63;;;2.33;;
75537;SDS011;64121;48.666;8.114;2023-02-04T14:31:11;8.10;;;2.58;;
75537;SDS011;64121;48.666;8.114;2023-02-04T14:33:36;6.25;;;2.25;;
75537;SDS011;64121;48.666;8.114;2023-02-04T14:36:02;9.20;;;2.80;;
75537;SDS011;64121;48.666;8.114;2023-02-04T14:38:27;9.07;;;2.53;;